sensor_id;sensor_type;location;lat;lon;timestamp;pressure;altitude;pressure_sealevel;temperature;humidity
33422;BME280;19763;55.798;37.782;2023-03-14T00:01:18;146576.81;;;-3.05;71.86
33422;BME280;19763;55.798;37.782;2023-03-14T00:03:45;146632.56;;;-2.82;71.47
33422;BME280;19763;55.798;37.782;2023-03-14T00:06:12;146675.72;;;-2.65;72.13
33422;BME280;19763;55.798;37.782;2023-03-14T00:08:38;146642.72;;;-2.78;71.25
33422;BME280;19763;55.798;37.782;2023-03-14T00:11:14;146654.19;;;-2.73;71.17
33422;BME280;19763;55.798;37.782;2023-03-14T00:13:40;146674.44;;;-2.65;71.88
33422;BME280;19763;55.798;37.782;2023-03-14T00:19:00;146632.56;;;-2.82;71.19
33422;BME280;19763;55.798;37.782;2023-03-14T00:21:29;146627.53;;;-2.84;71.54
33422;BME280;19763;55.798;37.782;2023-03-14T00:24:07;146665.56;;;-2.69;70.82
33422;BME280;19763;55.798;37.782;2023-03-14T00:26:33;146626.28;;;-2.85;71.81
33422;BME280;19763;55.798;37.782;2023-03-14T00:29:17;146636.44;;;-2.81;71.15
33422;BME280;19763;55.798;37.782;2023-03-14T00:31:42;146649.09;;;-2.75;71.69
33422;BME280;19763;55.798;37.782;2023-03-14T00:34:08;146633.88;;;-2.82;71.61
33422;BME280;19763;55.798;37.782;2023-03-14T00:36:33;146657.97;;;-2.72;71.24
33422;BME280;19763;55.798;37.782;2023-03-14T00:38:59;146680.78;;;-2.63;71.53
33422;BME280;19763;55.798;37.782;2023-03-14T00:41:28;146718.84;;;-2.47;71.21
33422;BME280;19763;55.798;37.782;2023-03-14T00:43:53;146732.81;;;-2.41;70.98
33422;BME280;19763;55.798;37.782;2023-03-14T00:46:25;146721.41;;;-2.46;70.32
33422;BME280;19763;55.798;37.782;2023-03-14T00:48:50;146697.28;;;-2.56;70.88
33422;BME280;19763;55.798;37.782;2023-03-14T00:51:25;146689.69;;;-2.59;71.47
33422;BME280;19763;55.798;37.782;2023-03-14T00:54:02;146707.44;;;-2.52;71.23
33422;BME280;19763;55.798;37.782;2023-03-14T00:56:34;146697.28;;;-2.56;71.39
33422;BME280;19763;55.798;37.782;2023-03-14T00:58:59;146722.66;;;-2.46;71.26
33422;BME280;19763;55.798;37.782;2023-03-14T01:01:25;146697.28;;;-2.56;71.78
33422;BME280;19763;55.798;37.782;2023-03-14T01:03:51;146682.09;;;-2.62;72.57
33422;BME280;19763;55.798;37.782;2023-03-14T01:06:20;146684.59;;;-2.61;72.77
33422;BME280;19763;55.798;37.782;2023-03-14T01:08:47;146673.19;;;-2.66;73.42
33422;BME280;19763;55.798;37.782;2023-03-14T01:11:18;146651.63;;;-2.74;73.45
33422;BME280;19763;55.798;37.782;2023-03-14T01:13:47;146701.09;;;-2.54;73.73
33422;BME280;19763;55.798;37.782;2023-03-14T01:16:19;146708.69;;;-2.51;74.26
33422;BME280;19763;55.798;37.782;2023-03-14T01:18:46;146712.50;;;-2.50;74.32
33422;BME280;19763;55.798;37.782;2023-03-14T01:21:38;146703.63;;;-2.53;74.66
33422;BME280;19763;55.798;37.782;2023-03-14T01:24:10;146593.28;;;-2.98;75.52
33422;BME280;19763;55.798;37.782;2023-03-14T01:26:36;146713.78;;;-2.49;75.40
33422;BME280;19763;55.798;37.782;2023-03-14T01:29:04;146701.09;;;-2.54;75.33
33422;BME280;19763;55.798;37.782;2023-03-14T01:31:36;146693.50;;;-2.57;76.56
33422;BME280;19763;55.798;37.782;2023-03-14T01:34:08;146731.56;;;-2.42;77.12
33422;BME280;19763;55.798;37.782;2023-03-14T01:36:33;146751.81;;;-2.34;78.44
33422;BME280;19763;55.798;37.782;2023-03-14T01:39:05;146726.44;;;-2.44;78.58
33422;BME280;19763;55.798;37.782;2023-03-14T01:41:46;146710.00;;;-2.51;79.78
33422;BME280;19763;55.798;37.782;2023-03-14T01:44:12;146702.34;;;-2.54;80.81
33422;BME280;19763;55.798;37.782;2023-03-14T01:46:42;146685.88;;;-2.61;81.40
33422;BME280;19763;55.798;37.782;2023-03-14T01:54:53;146717.59;;;-2.48;83.04
33422;BME280;19763;55.798;37.782;2023-03-14T01:57:23;146722.66;;;-2.46;83.31
33422;BME280;19763;55.798;37.782;2023-03-14T02:00:04;146731.56;;;-2.42;84.03
33422;BME280;19763;55.798;37.782;2023-03-14T02:02:37;146701.09;;;-2.54;84.78
33422;BME280;19763;55.798;37.782;2023-03-14T02:05:05;146754.38;;;-2.33;84.84
33422;BME280;19763;55.798;37.782;2023-03-14T02:07:52;146699.84;;;-2.55;85.18
33422;BME280;19763;55.798;37.782;2023-03-14T02:10:21;146726.44;;;-2.44;85.96
33422;BME280;19763;55.798;37.782;2023-03-14T02:12:48;146713.78;;;-2.49;86.66
33422;BME280;19763;55.798;37.782;2023-03-14T02:15:14;146731.56;;;-2.42;87.01
33422;BME280;19763;55.798;37.782;2023-03-14T02:17:44;146726.44;;;-2.44;87.61
33422;BME280;19763;55.798;37.782;2023-03-14T02:22:48;146749.31;;;-2.35;88.22
33422;BME280;19763;55.798;37.782;2023-03-14T02:25:44;146734.06;;;-2.41;87.99
33422;BME280;19763;55.798;37.782;2023-03-14T02:28:16;146779.72;;;-2.22;87.81
33422;BME280;19763;55.798;37.782;2023-03-14T02:30:51;146793.69;;;-2.17;88.21
33422;BME280;19763;55.798;37.782;2023-03-14T02:33:26;146748.00;;;-2.35;89.36
33422;BME280;19763;55.798;37.782;2023-03-14T02:36:00;146734.06;;;-2.41;89.84
33422;BME280;19763;55.798;37.782;2023-03-14T02:38:50;146798.78;;;-2.15;89.83
33422;BME280;19763;55.798;37.782;2023-03-14T02:41:40;146774.69;;;-2.24;91.07
33422;BME280;19763;55.798;37.782;2023-03-14T02:44:12;146789.88;;;-2.18;92.82
33422;BME280;19763;55.798;37.782;2023-03-14T02:46:47;146788.63;;;-2.19;93.33
33422;BME280;19763;55.798;37.782;2023-03-14T02:49:22;146802.59;;;-2.13;93.29
33422;BME280;19763;55.798;37.782;2023-03-14T02:51:47;146793.69;;;-2.17;94.05
33422;BME280;19763;55.798;37.782;2023-03-14T02:54:15;146792.44;;;-2.17;94.61
33422;BME280;19763;55.798;37.782;2023-03-14T02:56:40;146819.09;;;-2.06;94.62
33422;BME280;19763;55.798;37.782;2023-03-14T02:59:06;146839.38;;;-1.98;94.46
33422;BME280;19763;55.798;37.782;2023-03-14T03:01:33;146802.59;;;-2.13;95.01
33422;BME280;19763;55.798;37.782;2023-03-14T03:03:59;146820.34;;;-2.06;95.51
33422;BME280;19763;55.798;37.782;2023-03-14T03:06:25;146843.19;;;-1.97;95.24
33422;BME280;19763;55.798;37.782;2023-03-14T03:09:05;146854.63;;;-1.92;95.53
33422;BME280;19763;55.798;37.782;2023-03-14T03:11:43;146868.59;;;-1.86;94.64
33422;BME280;19763;55.798;37.782;2023-03-14T03:14:08;146895.22;;;-1.76;95.26
33422;BME280;19763;55.798;37.782;2023-03-14T03:16:34;146888.88;;;-1.78;95.27
33422;BME280;19763;55.798;37.782;2023-03-14T03:18:59;146886.38;;;-1.79;94.73
33422;BME280;19763;55.798;37.782;2023-03-14T03:21:25;146905.38;;;-1.71;94.86
33422;BME280;19763;55.798;37.782;2023-03-14T03:23:50;146919.34;;;-1.66;95.03
33422;BME280;19763;55.798;37.782;2023-03-14T03:26:16;146923.16;;;-1.64;95.64
33422;BME280;19763;55.798;37.782;2023-03-14T03:28:42;146947.28;;;-1.54;94.77
33422;BME280;19763;55.798;37.782;2023-03-14T03:31:11;146961.25;;;-1.49;94.11
33422;BME280;19763;55.798;37.782;2023-03-14T03:33:37;146998.09;;;-1.34;93.74
33422;BME280;19763;55.798;37.782;2023-03-14T03:36:07;146975.22;;;-1.43;93.50
33422;BME280;19763;55.798;37.782;2023-03-14T03:38:38;146982.84;;;-1.40;93.88
33422;BME280;19763;55.798;37.782;2023-03-14T03:41:10;146989.19;;;-1.37;93.40
33422;BME280;19763;55.798;37.782;2023-03-14T03:43:42;146987.94;;;-1.38;94.27
33422;BME280;19763;55.798;37.782;2023-03-14T03:46:16;147004.41;;;-1.31;94.08
33422;BME280;19763;55.798;37.782;2023-03-14T03:48:45;146989.19;;;-1.37;93.42
33422;BME280;19763;55.798;37.782;2023-03-14T03:51:14;146999.34;;;-1.33;94.48
33422;BME280;19763;55.798;37.782;2023-03-14T03:53:41;147041.28;;;-1.16;93.46
33422;BME280;19763;55.798;37.782;2023-03-14T03:56:19;147043.81;;;-1.15;94.30
33422;BME280;19763;55.798;37.782;2023-03-14T03:58:47;147059.03;;;-1.09;94.25
33422;BME280;19763;55.798;37.782;2023-03-14T04:01:12;147061.59;;;-1.08;93.55
33422;BME280;19763;55.798;37.782;2023-03-14T04:03:38;147057.78;;;-1.10;93.60
33422;BME280;19763;55.798;37.782;2023-03-14T04:06:12;147074.28;;;-1.03;93.75
33422;BME280;19763;55.798;37.782;2023-03-14T04:08:40;147074.28;;;-1.03;93.67
33422;BME280;19763;55.798;37.782;2023-03-14T04:11:06;147076.81;;;-1.02;93.79
33422;BME280;19763;55.798;37.782;2023-03-14T04:13:32;147111.13;;;-0.88;93.08
33422;BME280;19763;55.798;37.782;2023-03-14T04:16:08;147109.84;;;-0.89;93.78
33422;BME280;19763;55.798;37.782;2023-03-14T04:18:35;147099.66;;;-0.93;93.67
33422;BME280;19763;55.798;37.782;2023-03-14T04:21:00;147112.38;;;-0.88;93.83
33422;BME280;19763;55.798;37.782;2023-03-14T04:23:26;147102.22;;;-0.92;94.54
33422;BME280;19763;55.798;37.782;2023-03-14T04:25:52;147104.78;;;-0.91;94.93
33422;BME280;19763;55.798;37.782;2023-03-14T04:28:21;147088.25;;;-0.97;95.46
33422;BME280;19763;55.798;37.782;2023-03-14T04:30:46;147142.91;;;-0.75;94.93
33422;BME280;19763;55.798;37.782;2023-03-14T04:33:12;147141.59;;;-0.76;94.17
33422;BME280;19763;55.798;37.782;2023-03-14T04:35:42;147145.41;;;-0.74;94.67
33422;BME280;19763;55.798;37.782;2023-03-14T04:38:08;147106.03;;;-0.90;95.31
33422;BME280;19763;55.798;37.782;2023-03-14T04:40:37;147154.31;;;-0.71;95.40
33422;BME280;19763;55.798;37.782;2023-03-14T04:43:02;147181.03;;;-0.60;94.80
33422;BME280;19763;55.798;37.782;2023-03-14T04:45:30;147183.53;;;-0.59;95.02
33422;BME280;19763;55.798;37.782;2023-03-14T04:47:59;147200.06;;;-0.52;94.48
33422;BME280;19763;55.798;37.782;2023-03-14T04:50:25;147195.00;;;-0.54;94.05
33422;BME280;19763;55.798;37.782;2023-03-14T04:52:50;147214.03;;;-0.46;94.40
33422;BME280;19763;55.798;37.782;2023-03-14T04:55:16;147236.88;;;-0.37;94.28
33422;BME280;19763;55.798;37.782;2023-03-14T04:57:41;147245.81;;;-0.33;94.19
33422;BME280;19763;55.798;37.782;2023-03-14T05:00:07;147272.53;;;-0.23;94.83
33422;BME280;19763;55.798;37.782;2023-03-14T05:02:34;147275.03;;;-0.22;94.56
33422;BME280;19763;55.798;37.782;2023-03-14T05:05:00;147297.94;;;-0.12;93.67
33422;BME280;19763;55.798;37.782;2023-03-14T05:07:26;147269.97;;;-0.24;94.91
33422;BME280;19763;55.798;37.782;2023-03-14T05:09:54;147273.78;;;-0.22;95.24
33422;BME280;19763;55.798;37.782;2023-03-14T05:12:23;147263.59;;;-0.26;95.31
33422;BME280;19763;55.798;37.782;2023-03-14T05:14:48;147280.13;;;-0.20;95.16
33422;BME280;19763;55.798;37.782;2023-03-14T05:17:14;147306.81;;;-0.09;95.73
33422;BME280;19763;55.798;37.782;2023-03-14T05:19:40;147311.91;;;-0.07;95.94
33422;BME280;19763;55.798;37.782;2023-03-14T05:22:10;147323.34;;;-0.02;95.17
33422;BME280;19763;55.798;37.782;2023-03-14T05:24:35;147318.28;;;-0.04;95.37
33422;BME280;19763;55.798;37.782;2023-03-14T05:27:02;147325.91;;;-0.01;95.44
33422;BME280;19763;55.798;37.782;2023-03-14T05:29:33;147351.31;;;0.09;95.54
33422;BME280;19763;55.798;37.782;2023-03-14T05:32:01;147364.06;;;0.14;95.37
33422;BME280;19763;55.798;37.782;2023-03-14T05:34:33;147404.72;;;0.31;94.72
33422;BME280;19763;55.798;37.782;2023-03-14T05:37:04;147416.16;;;0.36;94.22
33422;BME280;19763;55.798;37.782;2023-03-14T05:39:33;147407.28;;;0.32;94.49
33422;BME280;19763;55.798;37.782;2023-03-14T05:41:58;147398.34;;;0.28;94.00
33422;BME280;19763;55.798;37.782;2023-03-14T05:44:24;147407.28;;;0.32;93.96
33422;BME280;19763;55.798;37.782;2023-03-14T05:46:49;147431.44;;;0.42;93.45
33422;BME280;19763;55.798;37.782;2023-03-14T05:49:15;147441.63;;;0.46;93.09
33422;BME280;19763;55.798;37.782;2023-03-14T05:51:40;147467.06;;;0.56;93.73
33422;BME280;19763;55.798;37.782;2023-03-14T05:54:06;147477.25;;;0.60;93.55
33422;BME280;19763;55.798;37.782;2023-03-14T05:56:32;147501.41;;;0.70;92.98
33422;BME280;19763;55.798;37.782;2023-03-14T05:58:58;147512.84;;;0.75;93.43
33422;BME280;19763;55.798;37.782;2023-03-14T06:01:23;147521.72;;;0.78;92.06
33422;BME280;19763;55.798;37.782;2023-03-14T06:03:49;147517.91;;;0.77;91.28
33422;BME280;19763;55.798;37.782;2023-03-14T06:06:14;147548.47;;;0.89;90.61
33422;BME280;19763;55.798;37.782;2023-03-14T06:08:41;147566.28;;;0.96;90.40
33422;BME280;19763;55.798;37.782;2023-03-14T06:11:07;147584.09;;;1.03;90.19
33422;BME280;19763;55.798;37.782;2023-03-14T06:13:33;147596.84;;;1.09;90.55
33422;BME280;19763;55.798;37.782;2023-03-14T06:15:59;147609.53;;;1.14;89.80
33422;BME280;19763;55.798;37.782;2023-03-14T06:18:24;147610.84;;;1.14;89.12
33422;BME280;19763;55.798;37.782;2023-03-14T06:20:54;147596.84;;;1.09;88.51
33422;BME280;19763;55.798;37.782;2023-03-14T06:23:20;147642.66;;;1.27;89.27
33422;BME280;19763;55.798;37.782;2023-03-14T06:25:45;147663.03;;;1.35;88.79
33422;BME280;19763;55.798;37.782;2023-03-14T06:28:11;147687.16;;;1.45;87.76
33422;BME280;19763;55.798;37.782;2023-03-14T06:30:36;147704.97;;;1.52;87.25
33422;BME280;19763;55.798;37.782;2023-03-14T06:33:02;147735.56;;;1.65;86.95
33422;BME280;19763;55.798;37.782;2023-03-14T06:35:27;147727.91;;;1.62;86.13
33422;BME280;19763;55.798;37.782;2023-03-14T06:37:53;147749.56;;;1.70;86.50
33422;BME280;19763;55.798;37.782;2023-03-14T06:40:19;147768.69;;;1.78;85.60
33422;BME280;19763;55.798;37.782;2023-03-14T06:42:44;147771.19;;;1.79;84.49
33422;BME280;19763;55.798;37.782;2023-03-14T06:45:11;147804.34;;;1.93;84.57
33422;BME280;19763;55.798;37.782;2023-03-14T06:47:36;147799.22;;;1.90;84.30
33422;BME280;19763;55.798;37.782;2023-03-14T06:50:04;147824.69;;;2.01;83.99
33422;BME280;19763;55.798;37.782;2023-03-14T06:52:30;147811.97;;;1.96;84.16
33422;BME280;19763;55.798;37.782;2023-03-14T06:54:55;147832.34;;;2.04;83.32
33422;BME280;19763;55.798;37.782;2023-03-14T06:57:21;147856.53;;;2.14;83.26
33422;BME280;19763;55.798;37.782;2023-03-14T06:59:49;147870.53;;;2.19;82.59
33422;BME280;19763;55.798;37.782;2023-03-14T07:02:22;147866.72;;;2.18;82.92
33422;BME280;19763;55.798;37.782;2023-03-14T07:04:48;147903.69;;;2.33;82.30
33422;BME280;19763;55.798;37.782;2023-03-14T07:07:13;147903.69;;;2.33;82.72
33422;BME280;19763;55.798;37.782;2023-03-14T07:09:39;147920.25;;;2.39;82.05
33422;BME280;19763;55.798;37.782;2023-03-14T07:12:05;147941.91;;;2.48;81.15
33422;BME280;19763;55.798;37.782;2023-03-14T07:14:31;147946.97;;;2.50;80.71
33422;BME280;19763;55.798;37.782;2023-03-14T07:16:59;147953.34;;;2.53;81.39
33422;BME280;19763;55.798;37.782;2023-03-14T07:19:25;147941.91;;;2.48;82.00
33422;BME280;19763;55.798;37.782;2023-03-14T07:21:50;147949.53;;;2.51;81.60
33422;BME280;19763;55.798;37.782;2023-03-14T07:24:19;147924.06;;;2.41;81.77
33422;BME280;19763;55.798;37.782;2023-03-14T07:26:54;147968.63;;;2.59;81.28
33422;BME280;19763;55.798;37.782;2023-03-14T07:29:19;148005.59;;;2.74;80.36
33422;BME280;19763;55.798;37.782;2023-03-14T07:31:45;147997.97;;;2.71;79.43
33422;BME280;19763;55.798;37.782;2023-03-14T07:34:10;148010.69;;;2.76;79.00
33422;BME280;19763;55.798;37.782;2023-03-14T07:36:36;147991.59;;;2.68;80.03
33422;BME280;19763;55.798;37.782;2023-03-14T07:39:19;147994.09;;;2.69;79.42
33422;BME280;19763;55.798;37.782;2023-03-14T07:41:48;147990.28;;;2.68;79.35
33422;BME280;19763;55.798;37.782;2023-03-14T07:44:19;148015.81;;;2.78;78.91
33422;BME280;19763;55.798;37.782;2023-03-14T07:46:48;148020.88;;;2.80;79.35
33422;BME280;19763;55.798;37.782;2023-03-14T07:49:13;148036.16;;;2.86;79.18
33422;BME280;19763;55.798;37.782;2023-03-14T07:51:39;148036.16;;;2.86;78.50
33422;BME280;19763;55.798;37.782;2023-03-14T07:54:05;148048.94;;;2.91;79.85
33422;BME280;19763;55.798;37.782;2023-03-14T07:56:30;148038.72;;;2.87;78.37
33422;BME280;19763;55.798;37.782;2023-03-14T07:58:57;148052.75;;;2.93;78.14
33422;BME280;19763;55.798;37.782;2023-03-14T08:01:22;148052.75;;;2.93;78.05
33422;BME280;19763;55.798;37.782;2023-03-14T08:03:50;148064.22;;;2.98;79.02
33422;BME280;19763;55.798;37.782;2023-03-14T08:06:22;148075.72;;;3.02;76.70
33422;BME280;19763;55.798;37.782;2023-03-14T08:08:48;148088.44;;;3.07;77.51
33422;BME280;19763;55.798;37.782;2023-03-14T08:11:13;148076.97;;;3.03;77.34
33422;BME280;19763;55.798;37.782;2023-03-14T08:13:39;148101.19;;;3.13;76.81
33422;BME280;19763;55.798;37.782;2023-03-14T08:16:11;148085.88;;;3.06;77.82
33422;BME280;19763;55.798;37.782;2023-03-14T08:18:36;148103.75;;;3.14;78.70
33422;BME280;19763;55.798;37.782;2023-03-14T08:21:02;148101.19;;;3.13;78.44
33422;BME280;19763;55.798;37.782;2023-03-14T08:23:27;148099.91;;;3.12;79.60
33422;BME280;19763;55.798;37.782;2023-03-14T08:25:53;148094.81;;;3.10;79.01
33422;BME280;19763;55.798;37.782;2023-03-14T08:28:18;148115.22;;;3.18;79.61
33422;BME280;19763;55.798;37.782;2023-03-14T08:30:44;148097.38;;;3.11;79.81
33422;BME280;19763;55.798;37.782;2023-03-14T08:33:10;148107.59;;;3.15;79.93
33422;BME280;19763;55.798;37.782;2023-03-14T08:35:37;148121.59;;;3.21;80.62
33422;BME280;19763;55.798;37.782;2023-03-14T08:38:03;148102.47;;;3.13;80.53
33422;BME280;19763;55.798;37.782;2023-03-14T08:40:29;148113.91;;;3.18;81.39
33422;BME280;19763;55.798;37.782;2023-03-14T08:42:54;148117.78;;;3.19;81.16
33422;BME280;19763;55.798;37.782;2023-03-14T08:45:20;148099.91;;;3.12;81.88
33422;BME280;19763;55.798;37.782;2023-03-14T08:47:46;148108.84;;;3.16;81.72
33422;BME280;19763;55.798;37.782;2023-03-14T08:50:12;148106.28;;;3.15;80.60
33422;BME280;19763;55.798;37.782;2023-03-14T08:52:38;148108.84;;;3.16;81.24
33422;BME280;19763;55.798;37.782;2023-03-14T08:55:07;148133.06;;;3.25;81.25
33422;BME280;19763;55.798;37.782;2023-03-14T08:57:33;148124.13;;;3.22;80.72
33422;BME280;19763;55.798;37.782;2023-03-14T08:59:58;148126.69;;;3.23;80.35
33422;BME280;19763;55.798;37.782;2023-03-14T09:02:25;148135.63;;;3.26;81.28
33422;BME280;19763;55.798;37.782;2023-03-14T09:04:51;148152.16;;;3.33;79.96
33422;BME280;19763;55.798;37.782;2023-03-14T09:07:18;148170.03;;;3.40;79.11
33422;BME280;19763;55.798;37.782;2023-03-14T09:09:44;148194.25;;;3.50;76.95
33422;BME280;19763;55.798;37.782;2023-03-14T09:12:10;148214.66;;;3.58;76.90
33422;BME280;19763;55.798;37.782;2023-03-14T09:14:35;148219.75;;;3.60;76.00
33422;BME280;19763;55.798;37.782;2023-03-14T09:17:07;148233.78;;;3.66;75.19
33422;BME280;19763;55.798;37.782;2023-03-14T09:19:33;148255.50;;;3.75;75.09
33422;BME280;19763;55.798;37.782;2023-03-14T09:21:58;148263.13;;;3.78;75.52
33422;BME280;19763;55.798;37.782;2023-03-14T09:24:24;148270.78;;;3.81;74.98
33422;BME280;19763;55.798;37.782;2023-03-14T09:26:50;148273.34;;;3.82;74.05
33422;BME280;19763;55.798;37.782;2023-03-14T09:29:15;148283.50;;;3.86;72.38
33422;BME280;19763;55.798;37.782;2023-03-14T09:31:41;148307.75;;;3.96;73.66
33422;BME280;19763;55.798;37.782;2023-03-14T09:34:06;148311.56;;;3.97;72.94
33422;BME280;19763;55.798;37.782;2023-03-14T09:36:35;148316.72;;;4.00;72.02
33422;BME280;19763;55.798;37.782;2023-03-14T09:39:06;148324.34;;;4.03;71.88
33422;BME280;19763;55.798;37.782;2023-03-14T09:41:44;148339.66;;;4.09;71.40
33422;BME280;19763;55.798;37.782;2023-03-14T09:44:17;148332.00;;;4.06;71.72
33422;BME280;19763;55.798;37.782;2023-03-14T09:46:47;148338.38;;;4.08;70.51
33422;BME280;19763;55.798;37.782;2023-03-14T09:49:39;148375.41;;;4.23;71.10
33422;BME280;19763;55.798;37.782;2023-03-14T09:52:12;148385.56;;;4.27;71.84
33422;BME280;19763;55.798;37.782;2023-03-14T09:54:43;148403.44;;;4.35;70.96
33422;BME280;19763;55.798;37.782;2023-03-14T09:57:21;148380.50;;;4.25;70.35
33422;BME280;19763;55.798;37.782;2023-03-14T09:59:49;148417.47;;;4.40;70.51
33422;BME280;19763;55.798;37.782;2023-03-14T10:02:21;148427.69;;;4.44;71.84
33422;BME280;19763;55.798;37.782;2023-03-14T10:04:49;148426.44;;;4.44;70.85
33422;BME280;19763;55.798;37.782;2023-03-14T10:07:24;148437.91;;;4.48;70.25
33422;BME280;19763;55.798;37.782;2023-03-14T10:09:51;148445.56;;;4.52;70.89
33422;BME280;19763;55.798;37.782;2023-03-14T10:12:18;148464.72;;;4.59;69.97
33422;BME280;19763;55.798;37.782;2023-03-14T10:14:47;148434.09;;;4.47;69.25
33422;BME280;19763;55.798;37.782;2023-03-14T10:17:25;148459.59;;;4.57;68.66
33422;BME280;19763;55.798;37.782;2023-03-14T10:19:59;148451.94;;;4.54;69.35
33422;BME280;19763;55.798;37.782;2023-03-14T10:22:29;148459.59;;;4.57;71.45
33422;BME280;19763;55.798;37.782;2023-03-14T10:25:04;148429.00;;;4.45;72.41
33422;BME280;19763;55.798;37.782;2023-03-14T10:27:32;148460.91;;;4.58;74.10
33422;BME280;19763;55.798;37.782;2023-03-14T10:30:07;148421.34;;;4.42;75.32
33422;BME280;19763;55.798;37.782;2023-03-14T10:32:37;148441.72;;;4.50;76.79
33422;BME280;19763;55.798;37.782;2023-03-14T10:37:36;148416.22;;;4.40;76.63
33422;BME280;19763;55.798;37.782;2023-03-14T10:40:13;148427.69;;;4.44;74.70
33422;BME280;19763;55.798;37.782;2023-03-14T10:42:42;148403.44;;;4.35;76.73
33422;BME280;19763;55.798;37.782;2023-03-14T10:45:36;148459.59;;;4.57;75.41
33422;BME280;19763;55.798;37.782;2023-03-14T10:51:03;148459.59;;;4.57;71.45
33422;BME280;19763;55.798;37.782;2023-03-14T10:53:54;148505.53;;;4.76;72.07
33422;BME280;19763;55.798;37.782;2023-03-14T10:56:37;148508.13;;;4.77;72.00
33422;BME280;19763;55.798;37.782;2023-03-14T10:59:07;148523.41;;;4.83;71.85
33422;BME280;19763;55.798;37.782;2023-03-14T11:07:38;148547.69;;;4.93;70.67
33422;BME280;19763;55.798;37.782;2023-03-14T11:10:24;148573.25;;;5.03;70.62
33422;BME280;19763;55.798;37.782;2023-03-14T11:13:31;148587.25;;;5.09;70.53
33422;BME280;19763;55.798;37.782;2023-03-14T11:16:05;148625.56;;;5.24;68.88
33422;BME280;19763;55.798;37.782;2023-03-14T11:30:18;148706.03;;;5.57;66.27
33422;BME280;19763;55.798;37.782;2023-03-14T11:32:48;148713.69;;;5.60;66.68
33422;BME280;19763;55.798;37.782;2023-03-14T11:38:28;148725.22;;;5.64;65.90
33422;BME280;19763;55.798;37.782;2023-03-14T11:41:00;148732.88;;;5.67;65.96
33422;BME280;19763;55.798;37.782;2023-03-14T11:43:37;148702.22;;;5.55;65.81
33422;BME280;19763;55.798;37.782;2023-03-14T11:46:28;148748.19;;;5.74;65.66
33422;BME280;19763;55.798;37.782;2023-03-14T11:49:11;148758.44;;;5.78;64.02
33422;BME280;19763;55.798;37.782;2023-03-14T11:57:03;148773.75;;;5.84;63.56
33422;BME280;19763;55.798;37.782;2023-03-14T12:10:43;148792.94;;;5.92;63.57
33422;BME280;19763;55.798;37.782;2023-03-14T12:13:13;148813.38;;;6.00;61.42
33422;BME280;19763;55.798;37.782;2023-03-14T12:16:00;148808.28;;;5.98;62.69
33422;BME280;19763;55.798;37.782;2023-03-14T12:18:39;148826.19;;;6.05;60.89
33422;BME280;19763;55.798;37.782;2023-03-14T12:21:08;148814.69;;;6.00;61.74
33422;BME280;19763;55.798;37.782;2023-03-14T12:23:55;148836.41;;;6.09;61.96
33422;BME280;19763;55.798;37.782;2023-03-14T12:26:24;148817.25;;;6.01;62.37
33422;BME280;19763;55.798;37.782;2023-03-14T12:29:09;148812.13;;;5.99;61.73
33422;BME280;19763;55.798;37.782;2023-03-14T12:31:48;148859.41;;;6.18;61.44
33422;BME280;19763;55.798;37.782;2023-03-14T12:36:53;148830.00;;;6.07;60.51
33422;BME280;19763;55.798;37.782;2023-03-14T12:45:30;148819.78;;;6.02;61.62
33422;BME280;19763;55.798;37.782;2023-03-14T12:50:43;148824.94;;;6.04;61.07
33422;BME280;19763;55.798;37.782;2023-03-14T12:56:17;148831.31;;;6.07;63.64
33422;BME280;19763;55.798;37.782;2023-03-14T13:01:20;148808.28;;;5.98;65.95
33422;BME280;19763;55.798;37.782;2023-03-14T13:03:52;148814.69;;;6.00;66.28
33422;BME280;19763;55.798;37.782;2023-03-14T13:06:44;148804.41;;;5.96;66.36
33422;BME280;19763;55.798;37.782;2023-03-14T13:12:10;148783.97;;;5.88;66.90
33422;BME280;19763;55.798;37.782;2023-03-14T13:14:43;148758.44;;;5.78;67.28
33422;BME280;19763;55.798;37.782;2023-03-14T13:17:11;148778.88;;;5.86;68.56
33422;BME280;19763;55.798;37.782;2023-03-14T13:19:43;148769.91;;;5.82;68.39
33422;BME280;19763;55.798;37.782;2023-03-14T13:22:33;148732.88;;;5.67;67.55
33422;BME280;19763;55.798;37.782;2023-03-14T13:25:07;148749.47;;;5.74;67.80
33422;BME280;19763;55.798;37.782;2023-03-14T13:27:35;148764.81;;;5.80;67.56
33422;BME280;19763;55.798;37.782;2023-03-14T13:32:41;148744.38;;;5.72;65.50
33422;BME280;19763;55.798;37.782;2023-03-14T13:35:25;148757.16;;;5.77;65.67
33422;BME280;19763;55.798;37.782;2023-03-14T13:38:04;148782.72;;;5.87;64.81
33422;BME280;19763;55.798;37.782;2023-03-14T13:40:34;148782.72;;;5.87;64.83
33422;BME280;19763;55.798;37.782;2023-03-14T13:43:15;148791.63;;;5.91;64.47
33422;BME280;19763;55.798;37.782;2023-03-14T13:48:16;148792.94;;;5.92;63.83
33422;BME280;19763;55.798;37.782;2023-03-14T13:50:50;148795.44;;;5.93;62.03
33422;BME280;19763;55.798;37.782;2023-03-14T13:53:26;148776.31;;;5.85;62.30
33422;BME280;19763;55.798;37.782;2023-03-14T13:56:02;148796.75;;;5.93;62.41
33422;BME280;19763;55.798;37.782;2023-03-14T13:58:37;148766.09;;;5.81;61.56
33422;BME280;19763;55.798;37.782;2023-03-14T14:01:09;148762.25;;;5.79;61.99
33422;BME280;19763;55.798;37.782;2023-03-14T14:03:39;148744.38;;;5.72;61.50
33422;BME280;19763;55.798;37.782;2023-03-14T14:06:37;148763.50;;;5.80;61.12
33422;BME280;19763;55.798;37.782;2023-03-14T14:09:11;148762.25;;;5.79;62.46
33422;BME280;19763;55.798;37.782;2023-03-14T14:17:00;148767.34;;;5.81;60.60
33422;BME280;19763;55.798;37.782;2023-03-14T14:19:32;148732.88;;;5.67;61.09
33422;BME280;19763;55.798;37.782;2023-03-14T14:21:58;148737.97;;;5.69;61.88
33422;BME280;19763;55.798;37.782;2023-03-14T14:24:27;148758.44;;;5.78;61.18